• Join FlightAware (Why Join?)
  • Login
  • US Flag 
01:06PM EDT


 

Airport Tracker/Info


-or-


 

Live Flight TrackerFlight Track Log ✈ MKU302 ✈ 28-Apr-2013 ✈ PHJH / JHM - PHNL

Flight Track Log - Related Links

Times and Time Zones

All times are in EDT time to prevent confusion due to time zone crossing. See the MKU302 flight status page for this flight to view local times or setup timezone preferences in your user account.

Time Position Orientation Groundspeed Altitude Reporting Facility
EDT Latitude Longitude Course Direction KTS MPH feet Rate Location/Type
02:10PM 20.9333 -156.7333 242° Southwest 160 184 2,600  Level Honolulu Center
02:11PM 20.9333 -156.7833 270° West 170 196 3,700 1,140 Climbing Honolulu Center
02:12PM 20.9500 -156.8333 290° West 170 196 4,900 1,140 Climbing Honolulu Center
02:13PM 20.9500 -156.9000 270° West 180 207 6,000 1,080 Climbing Honolulu Center
02:14PM 20.9667 -156.9500 290° West 170 196 7,100 960 Climbing Honolulu Center
02:15PM 20.9667 -157.0000 270° West 190 219 8,000 420 Climbing Honolulu Center
02:16PM 20.9500 -157.0667 255° West 210 242 8,000  Level Honolulu Center
02:17PM 20.9500 -157.1333 270° West 220 253 8,000  Level Honolulu Center
02:18PM 20.9500 -157.2000 270° West 230 265 8,000  Level Honolulu Center
02:19PM 20.9500 -157.2667 270° West 240 276 8,000  Level Honolulu Center
02:20PM 20.9500 -157.3333 270° West 230 265 8,000 -300 Level Honolulu Center
02:21PM 20.9500 -157.4000 270° West 230 265 7,500 -600 Descending Honolulu Center
02:22PM 20.9500 -157.4833 270° West 230 265 6,900 -660 Descending Honolulu Center
02:23PM 20.9667 -157.5500 285° West 230 265 6,200 -780 Descending Honolulu Center
02:24PM 21.0000 -157.6000 306° West 240 276 5,400 -840 Descending Honolulu Center
02:25PM 21.0333 -157.6667 298° West 240 276 4,600 -840 Descending Honolulu Center
02:26PM 21.0667 -157.7333 298° West 240 276 3,800 -840 Descending Honolulu Center
02:27PM 21.1000 -157.8000 298° West 220 253 3,000 -840 Descending Honolulu Center
02:28PM 21.1167 -157.8500 290° West 230 265 2,200 -780 Descending Honolulu Center
02:29PM 21.1500 -157.9167 298° West 200 230 1,500 -360 Descending Honolulu Center
02:30PM 21.2000 -157.9333 343° North 180 207 1,500 -240 Level Honolulu Center
02:31PM 21.2500 -157.9500 343° North 180 207 1,100 -360 Descending Honolulu Center
02:32PM 21.3000 -157.9667 343° North 120 138 800 -300 Descending Honolulu Center
02:34PM 21.3167 -157.9167 North  Level FlightAware Approximate